Time;durP1;ratioP1;P1;durP2;ratioP2;P2;SDS_P1;SDS_P2;PMS_P1;PMS_P2;Temp;Humidity;BMP_temperature;BMP_pressure;BME280_temperature;BME280_humidity;BME280_pressure;Samples;Min_cycle;Max_cycle;Signal;HPM_P1;HPM_P2
2021/12/14 00:00:17;;;;;;;18.48;16.55;;;;;;;;;;4924093;29;20393;-69
2021/12/14 00:02:44;;;;;;;16.85;15.25;;;;;;;;;;4924938;29;20197;-71
2021/12/14 00:05:11;;;;;;;17.27;15.48;;;;;;;;;;4927948;29;20079;-70
2021/12/14 00:07:37;;;;;;;18.08;16.17;;;;;;;;;;4923584;29;20187;-71
2021/12/14 00:10:30;;;;;;;16.40;14.95;;;;;;;;;;4924253;29;20067;-70
2021/12/14 00:13:08;;;;;;;16.50;14.93;;;;;;;;;;4925141;29;20047;-68
2021/12/14 00:15:33;;;;;;;16.52;15.10;;;;;;;;;;4926533;29;20058;-72
2021/12/14 00:18:04;;;;;;;16.42;14.82;;;;;;;;;;4924082;29;20035;-72
2021/12/14 00:20:39;;;;;;;17.55;14.98;;;;;;;;;;4926853;29;20406;-71
2021/12/14 00:25:56;;;;;;;17.27;15.68;;;;;;;;;;4914449;28;20457;-71
2021/12/14 00:28:29;;;;;;;17.45;15.48;;;;;;;;;;4960084;28;20035;-74
2021/12/14 00:30:58;;;;;;;17.92;16.23;;;;;;;;;;4956203;28;20043;-72
2021/12/14 00:33:33;;;;;;;16.77;15.23;;;;;;;;;;4958636;28;20036;-70
2021/12/14 00:36:00;;;;;;;18.85;16.88;;;;;;;;;;4961954;28;20035;-71
2021/12/14 00:38:26;;;;;;;17.67;15.88;;;;;;;;;;4949123;28;20035;-70
2021/12/14 00:40:57;;;;;;;19.13;17.10;;;;;;;;;;4954468;28;20079;-71
2021/12/14 00:43:23;;;;;;;18.38;16.45;;;;;;;;;;4951220;28;20516;-70
2021/12/14 00:45:49;;;;;;;20.60;18.08;;;;;;;;;;4957076;28;20042;-70
2021/12/14 00:48:16;;;;;;;22.05;17.75;;;;;;;;;;4953954;28;20053;-70
2021/12/14 00:50:48;;;;;;;21.05;17.80;;;;;;;;;;4954270;28;20038;-72
2021/12/14 00:53:14;;;;;;;20.63;17.10;;;;;;;;;;4945518;28;20061;-72
2021/12/14 00:55:43;;;;;;;20.55;18.33;;;;;;;;;;4951004;28;20110;-72
2021/12/14 00:58:11;;;;;;;19.85;17.90;;;;;;;;;;4949532;28;20027;-70
2021/12/14 01:00:42;;;;;;;19.35;17.35;;;;;;;;;;4934800;28;20050;-71
2021/12/14 01:03:09;;;;;;;20.48;18.40;;;;;;;;;;4942492;28;20036;-70
2021/12/14 01:05:39;;;;;;;21.05;18.83;;;;;;;;;;4951179;28;20038;-72
2021/12/14 01:08:08;;;;;;;27.45;20.38;;;;;;;;;;4952820;28;20035;-71
2021/12/14 01:11:14;;;;;;;29.38;21.20;;;;;;;;;;4952052;28;20039;-72
2021/12/14 01:13:49;;;;;;;32.42;20.92;;;;;;;;;;4952180;28;20239;-69
2021/12/14 01:16:30;;;;;;;24.10;20.58;;;;;;;;;;4937426;28;20040;-70
2021/12/14 01:19:12;;;;;;;29.27;21.23;;;;;;;;;;4948062;29;20114;-70
2021/12/14 01:22:10;;;;;;;32.90;22.65;;;;;;;;;;4939986;28;20360;-70
2021/12/14 01:27:18;;;;;;;28.48;20.55;;;;;;;;;;4936069;29;20583;-70
2021/12/14 01:29:46;;;;;;;31.75;23.35;;;;;;;;;;4938451;28;20611;-70
2021/12/14 01:32:12;;;;;;;34.90;22.35;;;;;;;;;;4964138;28;20043;-73
2021/12/14 01:34:38;;;;;;;35.30;23.55;;;;;;;;;;4952698;28;20383;-71
2021/12/14 01:37:09;;;;;;;34.05;22.52;;;;;;;;;;4948556;29;20040;-72
2021/12/14 01:39:49;;;;;;;34.22;22.55;;;;;;;;;;4944189;28;20043;-70
2021/12/14 01:42:41;;;;;;;35.00;22.52;;;;;;;;;;4940364;28;20036;-70
2021/12/14 01:45:19;;;;;;;33.97;22.98;;;;;;;;;;4934704;29;20047;-69
2021/12/14 01:47:49;;;;;;;40.53;24.88;;;;;;;;;;4945255;29;20400;-70
2021/12/14 01:50:49;;;;;;;33.72;22.33;;;;;;;;;;4951800;28;20608;-71
2021/12/14 01:53:27;;;;;;;27.95;20.85;;;;;;;;;;4936971;28;20559;-70
2021/12/14 01:56:00;;;;;;;33.47;21.70;;;;;;;;;;4942094;29;20122;-70
2021/12/14 01:58:37;;;;;;;30.23;21.02;;;;;;;;;;4940930;28;20542;-69
2021/12/14 02:01:12;;;;;;;27.02;20.73;;;;;;;;;;4940803;28;20565;-70
2021/12/14 02:03:47;;;;;;;29.48;19.75;;;;;;;;;;4949281;28;20414;-70
2021/12/14 02:06:17;;;;;;;29.60;21.25;;;;;;;;;;4943066;28;20039;-71
2021/12/14 02:08:43;;;;;;;25.73;20.73;;;;;;;;;;4933260;28;20415;-70
2021/12/14 02:11:10;;;;;;;26.50;20.20;;;;;;;;;;4944815;28;20043;-71
2021/12/14 02:13:43;;;;;;;28.48;19.88;;;;;;;;;;4942471;28;20118;-69
2021/12/14 02:16:17;;;;;;;29.52;21.20;;;;;;;;;;4944385;28;20035;-70
2021/12/14 02:18:51;;;;;;;30.98;19.98;;;;;;;;;;4948234;28;20411;-71
2021/12/14 02:21:18;;;;;;;28.50;21.13;;;;;;;;;;4946005;29;20031;-72
2021/12/14 02:23:47;;;;;;;29.35;21.13;;;;;;;;;;4953421;28;20058;-71
2021/12/14 02:26:18;;;;;;;31.48;21.17;;;;;;;;;;4939527;28;20047;-71
2021/12/14 02:28:45;;;;;;;26.25;19.20;;;;;;;;;;4966018;28;20043;-72
2021/12/14 02:31:15;;;;;;;25.80;18.75;;;;;;;;;;4947990;28;20118;-70
2021/12/14 02:33:42;;;;;;;25.95;18.98;;;;;;;;;;4953744;28;20592;-70
2021/12/14 02:36:19;;;;;;;24.83;18.10;;;;;;;;;;4932823;29;20032;-70
2021/12/14 02:38:49;;;;;;;25.35;18.27;;;;;;;;;;4945454;29;20050;-70
2021/12/14 02:41:15;;;;;;;25.45;18.85;;;;;;;;;;4948960;28;20141;-71
2021/12/14 02:43:54;;;;;;;25.80;19.00;;;;;;;;;;4948306;28;20043;-70
2021/12/14 02:46:39;;;;;;;21.40;18.83;;;;;;;;;;4947882;28;20435;-70
2021/12/14 02:49:09;;;;;;;26.30;18.23;;;;;;;;;;4935490;28;20043;-71
2021/12/14 02:51:42;;;;;;;29.00;19.70;;;;;;;;;;4954625;28;20035;-71
2021/12/14 02:54:12;;;;;;;27.48;19.50;;;;;;;;;;4933333;29;20077;-72
2021/12/14 02:56:39;;;;;;;25.00;19.58;;;;;;;;;;4949775;28;20047;-71
2021/12/14 02:59:17;;;;;;;27.40;19.00;;;;;;;;;;4938542;28;20023;-70
2021/12/14 03:01:47;;;;;;;26.15;19.90;;;;;;;;;;4944961;28;20042;-72
2021/12/14 03:04:16;;;;;;;28.08;18.20;;;;;;;;;;4951164;28;20035;-71
2021/12/14 03:06:49;;;;;;;28.77;18.80;;;;;;;;;;4957670;28;20031;-70
2021/12/14 03:09:35;;;;;;;37.42;18.58;;;;;;;;;;4933735;28;20038;-71
2021/12/14 03:12:18;;;;;;;33.60;20.50;;;;;;;;;;4932343;29;20103;-71
2021/12/14 03:15:09;;;;;;;26.65;18.63;;;;;;;;;;4935852;28;20555;-70
2021/12/14 03:17:35;;;;;;;30.08;19.08;;;;;;;;;;4938511;28;20035;-71
2021/12/14 03:20:10;;;;;;;27.90;19.38;;;;;;;;;;4955261;28;20403;-72
2021/12/14 03:22:57;;;;;;;23.98;17.80;;;;;;;;;;4957216;28;20102;-70
2021/12/14 03:25:23;;;;;;;27.55;18.13;;;;;;;;;;4953678;28;20121;-71
2021/12/14 03:27:53;;;;;;;27.40;18.52;;;;;;;;;;4937198;28;20044;-70
2021/12/14 03:30:27;;;;;;;38.70;21.40;;;;;;;;;;4940917;28;20031;-70
2021/12/14 03:32:56;;;;;;;31.08;20.67;;;;;;;;;;4952024;28;20043;-71
2021/12/14 03:35:44;;;;;;;35.78;21.05;;;;;;;;;;4947845;28;20066;-70
2021/12/14 03:38:17;;;;;;;44.00;21.25;;;;;;;;;;4943329;29;20077;-71
2021/12/14 03:40:55;;;;;;;42.50;21.30;;;;;;;;;;4941061;28;20054;-69
2021/12/14 03:43:22;;;;;;;40.58;20.20;;;;;;;;;;4937613;28;20554;-69
2021/12/14 03:45:50;;;;;;;32.95;18.92;;;;;;;;;;4944832;28;20085;-71
2021/12/14 03:48:17;;;;;;;37.00;20.10;;;;;;;;;;4946459;28;20052;-71
2021/12/14 03:50:44;;;;;;;37.45;21.05;;;;;;;;;;4946634;28;20039;-70
2021/12/14 03:53:11;;;;;;;36.83;20.20;;;;;;;;;;4953181;28;20042;-71
2021/12/14 03:55:47;;;;;;;39.40;21.17;;;;;;;;;;4936308;29;20041;-71
2021/12/14 03:58:24;;;;;;;37.83;21.70;;;;;;;;;;4965198;28;20058;-71
2021/12/14 04:00:58;;;;;;;33.85;20.98;;;;;;;;;;4945263;28;20038;-70
2021/12/14 04:03:27;;;;;;;41.83;21.10;;;;;;;;;;4943896;28;20063;-70
2021/12/14 04:06:10;;;;;;;25.33;17.85;;;;;;;;;;4944888;29;20114;-70
2021/12/14 04:08:37;;;;;;;29.17;18.93;;;;;;;;;;4936175;29;20240;-70
2021/12/14 04:11:05;;;;;;;25.45;17.70;;;;;;;;;;4944562;28;20035;-71
2021/12/14 04:13:35;;;;;;;36.30;19.90;;;;;;;;;;4946420;28;20035;-71
2021/12/14 04:16:05;;;;;;;28.50;18.15;;;;;;;;;;4943762;29;20094;-72
2021/12/14 04:18:31;;;;;;;35.75;18.38;;;;;;;;;;4948161;28;20059;-69
2021/12/14 04:20:58;;;;;;;27.33;17.73;;;;;;;;;;4952396;28;20593;-69
2021/12/14 04:23:28;;;;;;;30.75;17.35;;;;;;;;;;4938024;29;20074;-70
2021/12/14 04:25:57;;;;;;;20.83;17.58;;;;;;;;;;4937445;29;20038;-71
2021/12/14 04:28:27;;;;;;;28.63;18.40;;;;;;;;;;4958928;28;20340;-70
2021/12/14 04:30:55;;;;;;;33.22;18.80;;;;;;;;;;4933928;28;20106;-70
2021/12/14 04:33:30;;;;;;;35.88;19.30;;;;;;;;;;4944558;28;20043;-70
2021/12/14 04:35:57;;;;;;;26.17;17.95;;;;;;;;;;4936576;28;20040;-72
2021/12/14 04:38:31;;;;;;;28.08;17.42;;;;;;;;;;4947819;28;20066;-70
2021/12/14 04:52:08;;;;;;;35.45;18.05;;;;;;;;;;4948498;28;20035;-69
2021/12/14 04:54:51;;;;;;;30.33;17.00;;;;;;;;;;4938625;28;20057;-71
2021/12/14 04:57:32;;;;;;;23.98;16.58;;;;;;;;;;4958702;28;20356;-71
2021/12/14 05:00:21;;;;;;;30.33;16.25;;;;;;;;;;4944571;28;20038;-70
2021/12/14 05:03:00;;;;;;;24.40;16.65;;;;;;;;;;4945544;28;20417;-70
2021/12/14 05:05:40;;;;;;;21.35;15.77;;;;;;;;;;4956565;28;20523;-69
2021/12/14 05:10:55;;;;;;;30.30;16.85;;;;;;;;;;4940999;28;20043;-70
2021/12/14 05:13:38;;;;;;;23.05;15.85;;;;;;;;;;4933985;29;20810;-69
2021/12/14 05:16:07;;;;;;;24.17;15.55;;;;;;;;;;4945832;28;20109;-69
2021/12/14 05:18:33;;;;;;;29.33;16.92;;;;;;;;;;4943593;28;20473;-69
2021/12/14 05:21:00;;;;;;;28.15;17.40;;;;;;;;;;4951038;28;20704;-70
2021/12/14 05:23:33;;;;;;;30.85;16.45;;;;;;;;;;4937072;29;20043;-69
2021/12/14 05:26:03;;;;;;;27.63;17.63;;;;;;;;;;4926259;29;20487;-69
2021/12/14 05:28:30;;;;;;;28.92;17.00;;;;;;;;;;4940600;29;20067;-69
2021/12/14 05:31:04;;;;;;;38.70;17.45;;;;;;;;;;4944868;28;20199;-70
2021/12/14 05:33:34;;;;;;;24.75;16.92;;;;;;;;;;4941448;28;20515;-70
2021/12/14 05:36:14;;;;;;;27.88;17.33;;;;;;;;;;4940810;28;20091;-69
2021/12/14 05:44:25;;;;;;;34.25;17.92;;;;;;;;;;4943656;28;20138;-70
2021/12/14 05:46:59;;;;;;;215.93;20.85;;;;;;;;;;4946451;28;20030;-70
2021/12/14 05:49:35;;;;;;;43.42;19.15;;;;;;;;;;4943013;28;20043;-70
2021/12/14 05:52:09;;;;;;;48.38;19.20;;;;;;;;;;4952017;28;20061;-69
2021/12/14 05:54:35;;;;;;;34.47;17.75;;;;;;;;;;4951304;28;20043;-70
2021/12/14 05:57:04;;;;;;;39.90;18.48;;;;;;;;;;4962703;28;20035;-70
2021/12/14 05:59:33;;;;;;;36.63;18.10;;;;;;;;;;4960649;28;20446;-69
2021/12/14 06:02:01;;;;;;;35.03;18.95;;;;;;;;;;4945403;28;20453;-69
2021/12/14 06:04:33;;;;;;;44.53;18.15;;;;;;;;;;4948944;28;20052;-70
2021/12/14 06:06:59;;;;;;;42.80;18.20;;;;;;;;;;4954206;28;20046;-70
2021/12/14 06:09:29;;;;;;;43.20;18.35;;;;;;;;;;4948144;29;20125;-70
2021/12/14 06:12:15;;;;;;;50.60;19.35;;;;;;;;;;4957109;28;20047;-69
2021/12/14 06:14:51;;;;;;;39.25;18.80;;;;;;;;;;4949153;28;20463;-70
2021/12/14 06:17:22;;;;;;;33.55;19.10;;;;;;;;;;4946822;28;20028;-69
2021/12/14 06:19:52;;;;;;;39.67;19.13;;;;;;;;;;4934196;29;20080;-70
2021/12/14 06:22:21;;;;;;;36.55;18.40;;;;;;;;;;4947217;29;20055;-70
2021/12/14 06:25:08;;;;;;;46.00;17.80;;;;;;;;;;4947787;28;20479;-70
2021/12/14 06:27:35;;;;;;;35.17;18.50;;;;;;;;;;4955894;28;20031;-69
2021/12/14 06:30:05;;;;;;;40.20;18.25;;;;;;;;;;4941547;29;20300;-70
2021/12/14 06:32:38;;;;;;;31.80;17.30;;;;;;;;;;4962174;28;20542;-69
2021/12/14 06:35:15;;;;;;;24.55;15.85;;;;;;;;;;4951308;28;20497;-70
2021/12/14 06:38:28;;;;;;;42.10;17.15;;;;;;;;;;4937554;29;20372;-69
2021/12/14 06:41:03;;;;;;;35.85;18.20;;;;;;;;;;4944379;28;20046;-70
2021/12/14 06:43:52;;;;;;;38.42;17.40;;;;;;;;;;4950052;28;20039;-69
2021/12/14 06:46:19;;;;;;;39.88;20.35;;;;;;;;;;4942888;29;20206;-70
2021/12/14 06:48:47;;;;;;;66.60;35.55;;;;;;;;;;4942751;28;20195;-69
2021/12/14 06:51:20;;;;;;;31.00;17.77;;;;;;;;;;4935845;29;20044;-69
2021/12/14 06:53:56;;;;;;;49.58;17.88;;;;;;;;;;4945706;28;20042;-70
2021/12/14 06:56:41;;;;;;;47.42;17.70;;;;;;;;;;4954288;28;20038;-68
2021/12/14 06:59:30;;;;;;;39.83;17.65;;;;;;;;;;4942513;28;20145;-70
2021/12/14 07:02:08;;;;;;;37.17;18.42;;;;;;;;;;4945990;28;20043;-69
2021/12/14 07:04:47;;;;;;;419.77;192.90;;;;;;;;;;4950234;28;20067;-69
2021/12/14 07:07:17;;;;;;;52.35;17.73;;;;;;;;;;4941406;29;20493;-69
2021/12/14 07:09:54;;;;;;;29.02;16.15;;;;;;;;;;4948086;28;20093;-71
2021/12/14 07:12:31;;;;;;;46.97;17.58;;;;;;;;;;4942463;28;20097;-72
2021/12/14 07:15:03;;;;;;;29.35;16.63;;;;;;;;;;4939241;29;20042;-68
2021/12/14 07:17:43;;;;;;;51.03;17.63;;;;;;;;;;4915692;28;20495;-70
2021/12/14 07:20:12;;;;;;;32.83;16.25;;;;;;;;;;4949789;28;20454;-68
2021/12/14 07:23:22;;;;;;;39.17;19.53;;;;;;;;;;4945414;28;20203;-69
2021/12/14 07:26:08;;;;;;;29.23;15.70;;;;;;;;;;4932482;29;20347;-70
2021/12/14 07:28:43;;;;;;;24.20;16.25;;;;;;;;;;4954691;28;20039;-70
2021/12/14 07:31:22;;;;;;;39.15;25.80;;;;;;;;;;4946053;28;20039;-70
2021/12/14 07:33:56;;;;;;;27.00;16.65;;;;;;;;;;4950705;28;20086;-69
2021/12/14 07:36:36;;;;;;;23.52;17.67;;;;;;;;;;4939578;28;20492;-70
2021/12/14 07:39:13;;;;;;;29.20;17.02;;;;;;;;;;4948927;29;20301;-71
2021/12/14 07:41:48;;;;;;;24.70;17.88;;;;;;;;;;4951084;28;20040;-69
2021/12/14 07:44:28;;;;;;;20.30;16.75;;;;;;;;;;4949837;28;20031;-69
2021/12/14 07:46:59;;;;;;;21.65;16.70;;;;;;;;;;4948357;28;20135;-70
2021/12/14 07:49:29;;;;;;;23.33;17.45;;;;;;;;;;4944648;28;20510;-70
2021/12/14 07:51:59;;;;;;;23.65;16.85;;;;;;;;;;4939301;28;20081;-69
2021/12/14 07:54:30;;;;;;;15.75;14.25;;;;;;;;;;4939515;29;20034;-69
2021/12/14 07:57:06;;;;;;;18.67;16.42;;;;;;;;;;4937675;28;20042;-69
2021/12/14 07:59:36;;;;;;;21.02;15.68;;;;;;;;;;4939148;29;20046;-69
2021/12/14 08:02:22;;;;;;;18.30;16.02;;;;;;;;;;4947444;28;20042;-68
2021/12/14 08:04:53;;;;;;;18.40;16.52;;;;;;;;;;4946654;28;20034;-70
2021/12/14 08:07:25;;;;;;;19.45;16.30;;;;;;;;;;4946062;28;20486;-69
2021/12/14 08:09:53;;;;;;;18.95;17.05;;;;;;;;;;4942888;28;20053;-70
2021/12/14 08:12:31;;;;;;;19.42;16.27;;;;;;;;;;4944628;28;20142;-67
2021/12/14 08:15:19;;;;;;;20.50;17.33;;;;;;;;;;4950104;28;20054;-69
2021/12/14 08:17:56;;;;;;;19.88;16.67;;;;;;;;;;4941485;29;20027;-70
2021/12/14 08:20:23;;;;;;;18.25;16.38;;;;;;;;;;4947813;28;20039;-69
2021/12/14 08:22:49;;;;;;;22.40;17.35;;;;;;;;;;4938780;28;20296;-68
2021/12/14 08:25:24;;;;;;;21.10;17.52;;;;;;;;;;4938400;28;20625;-68
2021/12/14 08:28:00;;;;;;;20.65;17.73;;;;;;;;;;4936351;28;20442;-69
2021/12/14 08:30:27;;;;;;;22.02;16.88;;;;;;;;;;4946097;28;20483;-69
2021/12/14 08:32:54;;;;;;;19.17;16.95;;;;;;;;;;4948137;28;20038;-69
2021/12/14 08:35:20;;;;;;;19.63;17.23;;;;;;;;;;4946118;28;20042;-70
2021/12/14 08:37:52;;;;;;;20.15;17.75;;;;;;;;;;4943267;28;20114;-69
2021/12/14 08:40:25;;;;;;;19.48;17.40;;;;;;;;;;4949533;28;20073;-69
2021/12/14 08:43:07;;;;;;;20.05;17.77;;;;;;;;;;4946649;28;20051;-69
2021/12/14 08:45:39;;;;;;;18.90;16.90;;;;;;;;;;4943620;28;20487;-69
2021/12/14 08:48:07;;;;;;;20.52;17.20;;;;;;;;;;4938241;29;20043;-69
2021/12/14 08:51:12;;;;;;;19.75;17.05;;;;;;;;;;4940231;29;20487;-69
2021/12/14 08:53:39;;;;;;;18.10;16.33;;;;;;;;;;4944729;28;20075;-69
2021/12/14 08:56:07;;;;;;;21.45;17.08;;;;;;;;;;4936683;29;20512;-70
2021/12/14 08:58:34;;;;;;;16.63;15.13;;;;;;;;;;4939055;29;20463;-70
2021/12/14 09:01:07;;;;;;;23.73;20.67;;;;;;;;;;4937520;28;20298;-70
2021/12/14 09:03:44;;;;;;;18.92;17.02;;;;;;;;;;4951298;28;20031;-70
2021/12/14 09:06:13;;;;;;;18.30;16.35;;;;;;;;;;4938710;28;20050;-70
2021/12/14 09:08:40;;;;;;;17.63;15.55;;;;;;;;;;4944141;28;20044;-71
2021/12/14 09:11:09;;;;;;;42.78;27.95;;;;;;;;;;4945111;29;20033;-71
2021/12/14 09:13:35;;;;;;;41.10;27.60;;;;;;;;;;4946392;28;20110;-69
2021/12/14 09:16:13;;;;;;;19.77;17.35;;;;;;;;;;4936683;28;20355;-69
2021/12/14 09:18:44;;;;;;;18.98;16.50;;;;;;;;;;4947855;28;20118;-69
2021/12/14 09:21:14;;;;;;;52.67;30.25;;;;;;;;;;4955282;28;20031;-70
2021/12/14 09:23:49;;;;;;;26.25;20.50;;;;;;;;;;4941386;29;20062;-69
2021/12/14 09:26:19;;;;;;;36.97;22.75;;;;;;;;;;4946332;29;20069;-69
2021/12/14 09:28:46;;;;;;;22.42;16.88;;;;;;;;;;4956343;28;20027;-69
2021/12/14 09:31:16;;;;;;;17.10;15.30;;;;;;;;;;4943100;28;20538;-70
2021/12/14 09:33:42;;;;;;;18.00;14.68;;;;;;;;;;4950890;28;20031;-69
2021/12/14 09:36:13;;;;;;;21.13;17.20;;;;;;;;;;4947755;28;20358;-70
2021/12/14 09:38:42;;;;;;;16.10;14.50;;;;;;;;;;4951249;28;20483;-69
2021/12/14 09:41:12;;;;;;;16.67;15.18;;;;;;;;;;4946569;28;20348;-71
2021/12/14 09:43:39;;;;;;;;;;;;;;;;;;4942891;28;20038;-70
2021/12/14 09:46:07;;;;;;;19.45;17.35;;;;;;;;;;4950348;28;19921;-70
2021/12/14 09:48:41;;;;;;;17.50;15.90;;;;;;;;;;4940533;28;20074;-69
2021/12/14 09:51:12;;;;;;;16.52;14.85;;;;;;;;;;4946232;29;20381;-70
2021/12/14 09:53:42;;;;;;;20.25;16.80;;;;;;;;;;4943788;28;20306;-70
2021/12/14 09:56:10;;;;;;;17.73;14.93;;;;;;;;;;4948600;29;20487;-69
2021/12/14 09:58:43;;;;;;;18.52;15.30;;;;;;;;;;4944347;29;20082;-69
2021/12/14 10:01:15;;;;;;;16.92;15.10;;;;;;;;;;4941639;28;20095;-69
2021/12/14 10:03:42;;;;;;;15.95;14.35;;;;;;;;;;4950222;28;20208;-69
2021/12/14 10:06:12;;;;;;;14.90;13.57;;;;;;;;;;4939901;29;20051;-69
2021/12/14 10:08:43;;;;;;;15.18;13.77;;;;;;;;;;4941072;29;20058;-69
2021/12/14 10:12:03;;;;;;;20.08;16.50;;;;;;;;;;4945727;28;20649;-70
2021/12/14 10:14:37;;;;;;;16.17;14.55;;;;;;;;;;4888694;29;20060;-70
2021/12/14 10:17:08;;;;;;;16.50;14.48;;;;;;;;;;4892907;29;20040;-70
2021/12/14 10:19:35;;;;;;;17.90;16.08;;;;;;;;;;4892953;29;20036;-72
2021/12/14 10:22:05;;;;;;;15.20;13.82;;;;;;;;;;4894538;29;20555;-70
2021/12/14 10:24:32;;;;;;;15.40;14.05;;;;;;;;;;4890837;29;20464;-70
2021/12/14 10:27:03;;;;;;;15.40;13.90;;;;;;;;;;4890628;29;20053;-71
2021/12/14 10:29:29;;;;;;;18.73;16.65;;;;;;;;;;4904375;29;20048;-70
2021/12/14 10:32:01;;;;;;;16.42;15.02;;;;;;;;;;4891358;29;20052;-70
2021/12/14 10:34:32;;;;;;;15.85;14.27;;;;;;;;;;4892391;29;20040;-70
2021/12/14 10:37:09;;;;;;;16.33;14.80;;;;;;;;;;4885855;29;20561;-69
2021/12/14 10:39:41;;;;;;;15.18;13.52;;;;;;;;;;4877337;29;20457;-70
2021/12/14 10:45:03;;;;;;;15.63;14.18;;;;;;;;;;4891112;29;20056;-69
2021/12/14 10:47:30;;;;;;;14.95;13.65;;;;;;;;;;4897472;29;20235;-71
2021/12/14 10:49:57;;;;;;;15.52;14.10;;;;;;;;;;4902619;28;20036;-70
2021/12/14 10:52:27;;;;;;;15.38;14.07;;;;;;;;;;4946910;28;20150;-70
2021/12/14 10:54:58;;;;;;;17.52;15.65;;;;;;;;;;4947319;28;20126;-69
2021/12/14 10:57:28;;;;;;;16.23;14.93;;;;;;;;;;4940106;28;20039;-69
2021/12/14 10:59:55;;;;;;;16.30;15.00;;;;;;;;;;4953516;28;20077;-71
2021/12/14 11:02:24;;;;;;;17.15;15.55;;;;;;;;;;4947566;28;20399;-71
2021/12/14 11:04:56;;;;;;;16.20;14.77;;;;;;;;;;4939185;28;20039;-70
2021/12/14 11:07:45;;;;;;;24.63;19.45;;;;;;;;;;4942308;28;20091;-71
2021/12/14 11:10:13;;;;;;;22.73;18.30;;;;;;;;;;4942117;29;20224;-71
2021/12/14 11:12:42;;;;;;;25.00;19.98;;;;;;;;;;4938050;28;20044;-71
2021/12/14 11:15:12;;;;;;;17.13;15.38;;;;;;;;;;4939130;29;20035;-70
2021/12/14 11:20:32;;;;;;;20.35;18.25;;;;;;;;;;4944829;29;20047;-70
2021/12/14 11:23:28;;;;;;;16.70;15.07;;;;;;;;;;4933959;29;20031;-71
2021/12/14 11:26:05;;;;;;;26.45;20.75;;;;;;;;;;4944872;28;20019;-68
2021/12/14 11:28:39;;;;;;;15.85;14.25;;;;;;;;;;4937399;28;20043;-71
2021/12/14 11:31:25;;;;;;;15.82;14.23;;;;;;;;;;4944218;28;20090;-70
2021/12/14 11:33:54;;;;;;;16.48;14.77;;;;;;;;;;4946336;28;20120;-70
2021/12/14 11:36:22;;;;;;;17.38;15.70;;;;;;;;;;4944193;28;20129;-71
2021/12/14 11:38:52;;;;;;;15.70;14.32;;;;;;;;;;4949418;28;20247;-71
2021/12/14 11:42:06;;;;;;;17.45;16.02;;;;;;;;;;4942819;29;20244;-69
2021/12/14 11:44:36;;;;;;;15.63;14.23;;;;;;;;;;4932737;28;20062;-70
2021/12/14 11:49:57;;;;;;;15.77;14.48;;;;;;;;;;4943491;28;20043;-70
2021/12/14 11:52:54;;;;;;;15.87;14.63;;;;;;;;;;4941983;29;20035;-70
2021/12/14 11:55:46;;;;;;;16.95;15.48;;;;;;;;;;4946962;28;20298;-71
2021/12/14 11:58:20;;;;;;;17.70;16.10;;;;;;;;;;4945459;29;20411;-72
2021/12/14 12:00:53;;;;;;;17.40;15.63;;;;;;;;;;4937943;28;20475;-71
2021/12/14 12:03:22;;;;;;;15.98;14.57;;;;;;;;;;4951693;28;20336;-69
2021/12/14 12:06:25;;;;;;;16.03;14.63;;;;;;;;;;4941463;28;20069;-69
2021/12/14 12:11:43;;;;;;;16.48;14.75;;;;;;;;;;4947229;28;20079;-70
2021/12/14 12:14:22;;;;;;;16.52;14.93;;;;;;;;;;4946266;28;20430;-71
2021/12/14 12:16:48;;;;;;;15.50;13.98;;;;;;;;;;4945268;29;20152;-72
2021/12/14 12:19:21;;;;;;;15.07;13.88;;;;;;;;;;4946411;28;20110;-71
2021/12/14 12:21:49;;;;;;;15.45;13.95;;;;;;;;;;4938006;28;20046;-72
2021/12/14 12:24:55;;;;;;;15.38;14.15;;;;;;;;;;4941540;29;20036;-71
2021/12/14 12:27:28;;;;;;;15.65;14.18;;;;;;;;;;4900123;29;20115;-71
2021/12/14 12:32:57;;;;;;;16.02;14.63;;;;;;;;;;4926950;29;20074;-71
2021/12/14 12:35:35;;;;;;;15.65;14.38;;;;;;;;;;4925366;29;20127;-70
2021/12/14 12:38:17;;;;;;;17.33;15.73;;;;;;;;;;4935457;29;20111;-69
2021/12/14 12:40:52;;;;;;;16.60;14.95;;;;;;;;;;4921472;29;20031;-70
2021/12/14 12:43:26;;;;;;;19.10;15.52;;;;;;;;;;4924074;29;20122;-69
2021/12/14 12:46:00;;;;;;;17.40;15.57;;;;;;;;;;4916417;29;20163;-71
2021/12/14 12:48:45;;;;;;;15.10;13.77;;;;;;;;;;4923341;29;20047;-70
2021/12/14 12:51:31;;;;;;;14.98;13.68;;;;;;;;;;4913558;29;20044;-72
2021/12/14 12:54:09;;;;;;;15.52;14.02;;;;;;;;;;4923566;29;20240;-70
2021/12/14 12:56:37;;;;;;;14.95;13.48;;;;;;;;;;4926085;29;20130;-71
2021/12/14 12:59:06;;;;;;;15.65;14.25;;;;;;;;;;4927949;29;20596;-70
2021/12/14 13:01:32;;;;;;;17.58;15.07;;;;;;;;;;4939754;28;20065;-70
2021/12/14 13:03:57;;;;;;;16.95;15.27;;;;;;;;;;4940946;28;20031;-70
2021/12/14 13:06:24;;;;;;;19.05;14.80;;;;;;;;;;4936090;28;20046;-70
2021/12/14 13:08:58;;;;;;;16.33;14.70;;;;;;;;;;4942976;28;20469;-71
2021/12/14 13:11:35;;;;;;;17.77;15.93;;;;;;;;;;4929236;29;20040;-70
2021/12/14 13:14:05;;;;;;;17.50;15.32;;;;;;;;;;4930132;29;20040;-71
2021/12/14 13:16:49;;;;;;;16.40;14.82;;;;;;;;;;4941726;29;20047;-71
2021/12/14 13:19:23;;;;;;;16.10;14.50;;;;;;;;;;4937436;28;20035;-71
2021/12/14 13:21:59;;;;;;;17.38;14.40;;;;;;;;;;4939034;29;20488;-71
2021/12/14 13:24:29;;;;;;;15.82;14.43;;;;;;;;;;4941015;28;20062;-69
2021/12/14 13:27:06;;;;;;;15.95;14.30;;;;;;;;;;4940917;28;20395;-71
2021/12/14 13:29:51;;;;;;;16.75;14.88;;;;;;;;;;4940619;28;20050;-72
2021/12/14 13:32:35;;;;;;;15.32;13.88;;;;;;;;;;4939744;28;20035;-70
2021/12/14 13:35:18;;;;;;;15.40;13.80;;;;;;;;;;4942151;28;20386;-70
2021/12/14 13:37:55;;;;;;;16.33;14.75;;;;;;;;;;4935157;29;20065;-69
2021/12/14 13:40:25;;;;;;;16.33;14.73;;;;;;;;;;4941728;28;20031;-70
2021/12/14 13:43:09;;;;;;;16.67;14.93;;;;;;;;;;4960256;28;20086;-71
2021/12/14 13:45:39;;;;;;;16.88;15.25;;;;;;;;;;4940952;28;20044;-69
2021/12/14 13:48:07;;;;;;;15.93;14.32;;;;;;;;;;4936886;29;20039;-69
2021/12/14 13:50:48;;;;;;;16.85;15.32;;;;;;;;;;4941378;28;20122;-71
2021/12/14 13:53:14;;;;;;;18.10;14.90;;;;;;;;;;4944002;28;20514;-69
2021/12/14 13:55:42;;;;;;;16.33;14.52;;;;;;;;;;4936992;29;20043;-71
2021/12/14 13:58:17;;;;;;;17.73;15.73;;;;;;;;;;4944238;28;20567;-72
2021/12/14 14:00:47;;;;;;;16.88;14.65;;;;;;;;;;4941245;28;20038;-71
2021/12/14 14:03:15;;;;;;;16.00;14.40;;;;;;;;;;4943918;28;20287;-71
2021/12/14 14:05:43;;;;;;;16.50;14.80;;;;;;;;;;4945694;28;20042;-71
2021/12/14 14:08:13;;;;;;;17.40;15.60;;;;;;;;;;4944371;28;20035;-72
2021/12/14 14:10:39;;;;;;;22.05;15.55;;;;;;;;;;4939249;28;20042;-70
2021/12/14 14:13:10;;;;;;;17.05;15.52;;;;;;;;;;4941001;28;20512;-71
2021/12/14 14:15:39;;;;;;;18.35;16.27;;;;;;;;;;4947578;28;20581;-71
2021/12/14 14:18:10;;;;;;;18.02;16.23;;;;;;;;;;4941597;28;20039;-71
2021/12/14 14:20:48;;;;;;;20.00;17.48;;;;;;;;;;4939898;29;20401;-70
2021/12/14 14:23:21;;;;;;;20.35;18.27;;;;;;;;;;4948000;28;20121;-71
2021/12/14 14:26:00;;;;;;;20.20;18.05;;;;;;;;;;4945882;28;20095;-70
2021/12/14 14:28:49;;;;;;;21.15;18.55;;;;;;;;;;4949764;28;20035;-71
2021/12/14 14:31:29;;;;;;;21.20;18.52;;;;;;;;;;4949870;28;20062;-70
2021/12/14 14:33:56;;;;;;;19.52;17.58;;;;;;;;;;4950315;28;20062;-69
2021/12/14 14:36:32;;;;;;;20.65;17.95;;;;;;;;;;4941554;29;20034;-71
2021/12/14 14:39:18;;;;;;;19.83;17.73;;;;;;;;;;4937643;29;20032;-71
2021/12/14 14:41:56;;;;;;;24.33;18.00;;;;;;;;;;4945837;28;20035;-70
2021/12/14 14:44:29;;;;;;;19.80;17.73;;;;;;;;;;4953686;28;20073;-70
2021/12/14 14:47:03;;;;;;;21.85;18.10;;;;;;;;;;4938762;29;20094;-70
2021/12/14 14:49:32;;;;;;;21.90;18.55;;;;;;;;;;4940775;28;20400;-70
2021/12/14 14:52:04;;;;;;;23.60;17.20;;;;;;;;;;4946910;28;20042;-68
2021/12/14 14:54:33;;;;;;;24.15;18.52;;;;;;;;;;4942340;29;20042;-68
2021/12/14 14:57:18;;;;;;;25.05;19.02;;;;;;;;;;4945002;28;20105;-71
2021/12/14 15:00:00;;;;;;;23.63;18.45;;;;;;;;;;4937900;28;20527;-70
2021/12/14 15:02:34;;;;;;;23.63;18.10;;;;;;;;;;4949874;28;20043;-68
2021/12/14 15:05:08;;;;;;;25.48;19.38;;;;;;;;;;4943416;28;20297;-69
2021/12/14 15:07:58;;;;;;;26.85;19.45;;;;;;;;;;4944999;28;20055;-69
2021/12/14 15:10:38;;;;;;;29.65;20.42;;;;;;;;;;4940509;29;20517;-71
2021/12/14 15:13:27;;;;;;;28.92;18.85;;;;;;;;;;4944269;29;20294;-68
2021/12/14 15:15:54;;;;;;;;;;;;;;;;;;4950627;28;20085;-71
2021/12/14 15:18:47;;;;;;;30.90;20.67;;;;;;;;;;4941631;29;19965;-71
2021/12/14 15:21:32;;;;;;;30.40;21.30;;;;;;;;;;4942602;29;20042;-71
2021/12/14 15:24:26;;;;;;;32.15;20.90;;;;;;;;;;4945522;28;20046;-70
2021/12/14 15:27:10;;;;;;;28.00;19.35;;;;;;;;;;4950811;29;20534;-71
2021/12/14 15:29:43;;;;;;;27.20;19.58;;;;;;;;;;4951427;29;20050;-71
2021/12/14 15:32:17;;;;;;;28.08;20.27;;;;;;;;;;4946317;28;20028;-70
2021/12/14 15:35:12;;;;;;;32.58;20.75;;;;;;;;;;4945057;28;20043;-71
2021/12/14 15:38:09;;;;;;;28.17;21.73;;;;;;;;;;4945283;29;20047;-71